Time,TemperatureF,DewpointF,PressureIn,WindDirection,WindDirectionDegrees,WindSpeedMPH,WindSpeedGustMPH,Humidity,HourlyPrecipIn,Conditions,Clouds,dailyrainin,SoftwareType,DateUTC
2013-02-04 00:01:00,19.8,13.9,29.30,WSW,247,0.0,0.0,78,0.00,,,0.00,WUHU21623XXSP,2013-02-04 05:01:00,
2013-02-04 00:02:00,19.8,13.9,29.30,SSW,202,0.0,0.0,78,0.00,,,0.00,WUHU21623XXSP,2013-02-04 05:02:00,
2013-02-04 00:07:00,19.6,13.7,29.30,WSW,247,0.0,0.0,78,0.00,,,0.00,WUHU21623XXSP,2013-02-04 05:07:00,
2013-02-04 00:12:00,19.6,13.7,29.29,WSW,247,0.0,0.0,78,0.00,,,0.00,WUHU21623XXSP,2013-02-04 05:12:00,
2013-02-04 00:17:00,19.6,13.7,29.30,WSW,247,0.0,0.0,78,0.00,,,0.00,WUHU21623XXSP,2013-02-04 05:17:00,
2013-02-04 00:22:00,19.4,13.6,29.29,WSW,247,0.0,0.0,78,0.00,,,0.00,WUHU21623XXSP,2013-02-04 05:22:00,
2013-02-04 00:27:00,19.4,13.6,29.30,West,270,0.0,0.0,78,0.00,,,0.00,WUHU21623XXSP,2013-02-04 05:27:00,
2013-02-04 00:32:00,19.6,13.7,29.30,SW,225,0.0,0.0,78,0.00,,,0.00,WUHU21623XXSP,2013-02-04 05:32:00,
2013-02-04 00:37:00,19.6,13.7,29.30,West,270,0.0,0.0,78,0.00,,,0.00,WUHU21623XXSP,2013-02-04 05:37:00,
2013-02-04 00:42:00,19.8,13.9,29.30,WSW,247,0.0,0.0,78,0.00,,,0.00,WUHU21623XXSP,2013-02-04 05:42:00,
2013-02-04 00:47:00,19.9,14.1,29.29,WNW,292,0.0,0.0,78,0.00,,,0.00,WUHU21623XXSP,2013-02-04 05:47:00,
2013-02-04 00:52:00,19.9,14.4,29.30,WNW,292,0.0,0.0,79,0.00,,,0.00,WUHU21623XXSP,2013-02-04 05:52:00,
2013-02-04 00:57:00,19.9,14.4,29.30,WSW,247,0.0,0.0,79,0.00,,,0.00,WUHU21623XXSP,2013-02-04 05:57:00,
2013-02-04 01:02:00,20.1,14.6,29.30,West,270,0.0,0.0,79,0.00,,,0.00,WUHU21623XXSP,2013-02-04 06:02:00,
2013-02-04 01:07:00,20.1,14.6,29.29,SW,225,0.0,0.0,79,0.00,,,0.00,WUHU21623XXSP,2013-02-04 06:07:00,
2013-02-04 01:12:00,20.1,14.6,29.29,West,270,0.0,0.0,79,0.00,,,0.00,WUHU21623XXSP,2013-02-04 06:12:00,
2013-02-04 01:17:00,20.3,14.8,29.29,SW,225,0.0,0.0,79,0.00,,,0.00,WUHU21623XXSP,2013-02-04 06:17:00,
2013-02-04 01:22:00,20.3,14.8,29.29,NW,315,0.0,0.0,79,0.00,,,0.00,WUHU21623XXSP,2013-02-04 06:22:00,
2013-02-04 01:27:00,20.5,14.6,29.29,WSW,247,0.0,0.0,78,0.00,,,0.00,WUHU21623XXSP,2013-02-04 06:27:00,
2013-02-04 01:32:00,20.5,14.6,29.29,West,270,0.0,0.0,78,0.00,,,0.00,WUHU21623XXSP,2013-02-04 06:32:00,
2013-02-04 01:37:00,20.7,14.8,29.29,SW,225,0.0,0.0,78,0.00,,,0.00,WUHU21623XXSP,2013-02-04 06:37:00,
2013-02-04 01:42:00,20.8,15.0,29.29,SW,225,0.0,0.0,78,0.00,,,0.00,WUHU21623XXSP,2013-02-04 06:42:00,
2013-02-04 01:47:00,20.8,15.0,29.29,WNW,292,0.0,0.0,78,0.00,,,0.00,WUHU21623XXSP,2013-02-04 06:47:00,
2013-02-04 01:52:00,21.0,15.2,29.29,WSW,247,0.0,0.0,78,0.00,,,0.00,WUHU21623XXSP,2013-02-04 06:52:00,
2013-02-04 01:57:00,21.0,15.2,29.29,West,270,2.2,2.2,78,0.00,,,0.00,WUHU21623XXSP,2013-02-04 06:57:00,
2013-02-04 02:02:00,21.0,15.2,29.29,West,270,0.0,2.2,78,0.00,,,0.00,WUHU21623XXSP,2013-02-04 07:02:00,
2013-02-04 02:07:00,21.0,15.2,29.29,West,270,0.0,0.0,78,0.00,,,0.00,WUHU21623XXSP,2013-02-04 07:07:00,
2013-02-04 02:12:00,21.4,15.5,29.28,West,270,0.0,0.0,78,0.00,,,0.00,WUHU21623XXSP,2013-02-04 07:12:00,
2013-02-04 02:17:00,21.4,15.9,29.28,West,270,0.0,0.0,79,0.00,,,0.00,WUHU21623XXSP,2013-02-04 07:17:00,
2013-02-04 02:23:00,21.4,15.9,29.29,WSW,247,0.0,0.0,79,0.00,,,0.00,WUHU21623XXSP,2013-02-04 07:23:00,
2013-02-04 02:28:00,21.4,15.9,29.29,WSW,247,0.0,0.0,79,0.00,,,0.00,WUHU21623XXSP,2013-02-04 07:28:00,
2013-02-04 02:33:00,21.4,15.9,29.28,SW,225,0.0,0.0,79,0.00,,,0.00,WUHU21623XXSP,2013-02-04 07:33:00,
2013-02-04 02:38:00,21.4,16.2,29.29,SW,225,0.0,0.0,80,0.00,,,0.00,WUHU21623XXSP,2013-02-04 07:38:00,
2013-02-04 02:43:00,21.4,16.2,29.29,WSW,247,0.0,0.0,80,0.00,,,0.00,WUHU21623XXSP,2013-02-04 07:43:00,
2013-02-04 02:48:00,21.4,16.2,29.29,WSW,247,0.0,0.0,80,0.00,,,0.00,WUHU21623XXSP,2013-02-04 07:48:00,
2013-02-04 02:53:00,21.4,16.4,29.28,SSW,202,0.0,0.0,81,0.00,,,0.00,WUHU21623XXSP,2013-02-04 07:53:00,
2013-02-04 02:58:00,21.4,16.4,29.28,SW,225,0.0,0.0,81,0.00,,,0.00,WUHU21623XXSP,2013-02-04 07:58:00,
2013-02-04 03:03:00,21.6,16.6,29.29,WSW,247,0.0,0.0,81,0.00,,,0.00,WUHU21623XXSP,2013-02-04 08:03:00,
2013-02-04 03:08:00,21.4,16.7,29.29,WSW,247,0.0,0.0,82,0.00,,,0.00,WUHU21623XXSP,2013-02-04 08:08:00,
2013-02-04 03:13:00,21.4,16.7,29.28,WSW,247,0.0,0.0,82,0.00,,,0.00,WUHU21623XXSP,2013-02-04 08:13:00,
2013-02-04 03:18:00,21.6,16.9,29.29,SSW,202,0.0,0.0,82,0.00,,,0.00,WUHU21623XXSP,2013-02-04 08:18:00,
2013-02-04 03:23:00,21.6,16.9,29.28,SSW,202,0.0,0.0,82,0.00,,,0.00,WUHU21623XXSP,2013-02-04 08:23:00,
2013-02-04 03:28:00,21.6,16.9,29.28,SSW,202,0.0,0.0,82,0.00,,,0.00,WUHU21623XXSP,2013-02-04 08:28:00,
2013-02-04 03:33:00,21.7,17.1,29.27,South,180,0.0,0.0,82,0.00,,,0.00,WUHU21623XXSP,2013-02-04 08:33:00,
2013-02-04 03:38:00,21.7,17.1,29.27,SE,135,0.0,0.0,82,0.00,,,0.00,WUHU21623XXSP,2013-02-04 08:38:00,
2013-02-04 03:43:00,21.7,17.1,29.27,SE,135,0.0,0.0,82,0.00,,,0.00,WUHU21623XXSP,2013-02-04 08:43:00,
2013-02-04 03:48:00,21.9,17.2,29.26,SE,135,0.0,0.0,82,0.00,,,0.00,WUHU21623XXSP,2013-02-04 08:48:00,
2013-02-04 03:53:00,21.9,17.2,29.26,SE,135,0.0,0.0,82,0.00,,,0.00,WUHU21623XXSP,2013-02-04 08:53:00,
2013-02-04 03:58:00,21.9,17.2,29.26,SE,135,0.0,0.0,82,0.00,,,0.00,WUHU21623XXSP,2013-02-04 08:58:00,
2013-02-04 04:03:00,21.9,17.2,29.27,SE,135,0.0,0.0,82,0.00,,,0.00,WUHU21623XXSP,2013-02-04 09:03:00,
2013-02-04 04:08:00,21.9,17.2,29.26,SSE,157,0.0,0.0,82,0.00,,,0.00,WUHU21623XXSP,2013-02-04 09:08:00,
2013-02-04 04:13:00,22.1,17.2,29.26,SSE,157,0.0,0.0,82,0.00,,,0.00,WUHU21623XXSP,2013-02-04 09:13:00,
2013-02-04 04:19:00,22.1,17.4,29.26,ESE,112,0.0,0.0,82,0.00,,,0.00,WUHU21623XXSP,2013-02-04 09:19:00,
2013-02-04 04:23:00,21.9,17.2,29.25,SSE,157,0.0,0.0,82,0.00,,,0.00,WUHU21623XXSP,2013-02-04 09:23:00,
2013-02-04 04:29:00,21.9,17.2,29.25,ESE,112,0.0,0.0,82,0.00,,,0.00,WUHU21623XXSP,2013-02-04 09:29:00,
2013-02-04 04:34:00,21.7,17.1,29.24,SSE,157,0.0,0.0,82,0.00,,,0.00,WUHU21623XXSP,2013-02-04 09:34:00,
2013-02-04 04:39:00,21.7,17.1,29.23,ESE,112,0.0,0.0,82,0.00,,,0.00,WUHU21623XXSP,2013-02-04 09:39:00,
2013-02-04 04:44:00,21.7,17.1,29.24,SE,135,0.0,0.0,82,0.00,,,0.00,WUHU21623XXSP,2013-02-04 09:44:00,
2013-02-04 04:49:00,21.7,17.1,29.23,SE,135,0.0,0.0,82,0.00,,,0.00,WUHU21623XXSP,2013-02-04 09:49:00,
2013-02-04 04:54:00,21.7,17.1,29.23,ENE,67,0.0,0.0,82,0.00,,,0.00,WUHU21623XXSP,2013-02-04 09:54:00,
2013-02-04 04:59:00,21.7,17.1,29.23,East,90,0.0,0.0,82,0.00,,,0.00,WUHU21623XXSP,2013-02-04 09:59:00,
2013-02-04 05:04:00,21.7,17.1,29.23,SSE,157,0.0,0.0,82,0.00,,,0.00,WUHU21623XXSP,2013-02-04 10:04:00,
2013-02-04 05:09:00,21.7,17.1,29.22,SSE,157,0.0,0.0,82,0.00,,,0.00,WUHU21623XXSP,2013-02-04 10:09:00,
2013-02-04 05:14:00,21.9,17.2,29.22,SE,135,0.0,0.0,82,0.00,,,0.00,WUHU21623XXSP,2013-02-04 10:14:00,
2013-02-04 05:19:00,21.9,17.2,29.21,ESE,112,0.0,0.0,82,0.00,,,0.00,WUHU21623XXSP,2013-02-04 10:19:00,
2013-02-04 05:24:00,21.9,17.2,29.21,SE,135,0.0,0.0,82,0.00,,,0.00,WUHU21623XXSP,2013-02-04 10:24:00,
2013-02-04 05:29:00,21.9,17.2,29.21,ENE,67,0.0,0.0,82,0.00,,,0.00,WUHU21623XXSP,2013-02-04 10:29:00,
2013-02-04 05:34:00,22.1,17.4,29.21,ESE,112,0.0,0.0,82,0.00,,,0.00,WUHU21623XXSP,2013-02-04 10:34:00,
2013-02-04 05:39:00,22.1,17.4,29.20,SE,135,0.0,0.0,82,0.00,,,0.00,WUHU21623XXSP,2013-02-04 10:39:00,
2013-02-04 05:44:00,22.3,17.3,29.20,SW,225,0.0,1.3,81,0.00,,,0.00,WUHU21623XXSP,2013-02-04 10:44:00,
2013-02-04 05:49:00,22.3,17.3,29.20,South,180,0.0,1.3,81,0.00,,,0.00,WUHU21623XXSP,2013-02-04 10:49:00,
2013-02-04 05:54:00,22.3,17.3,29.20,SSE,157,0.0,0.0,81,0.00,,,0.00,WUHU21623XXSP,2013-02-04 10:54:00,
2013-02-04 05:59:00,22.5,17.5,29.20,South,180,0.0,0.0,81,0.00,,,0.00,WUHU21623XXSP,2013-02-04 10:59:00,
2013-02-04 06:04:00,22.5,17.5,29.19,South,180,0.0,0.0,81,0.00,,,0.00,WUHU21623XXSP,2013-02-04 11:04:00,
2013-02-04 06:09:00,22.5,17.5,29.20,ENE,67,0.0,0.0,81,0.00,,,0.00,WUHU21623XXSP,2013-02-04 11:09:00,
2013-02-04 06:14:00,22.6,17.7,29.20,SSW,202,0.0,0.0,81,0.00,,,0.00,WUHU21623XXSP,2013-02-04 11:14:00,
2013-02-04 06:19:00,22.6,17.7,29.20,East,90,0.0,0.0,81,0.00,,,0.00,WUHU21623XXSP,2013-02-04 11:19:00,
2013-02-04 06:24:00,22.5,17.5,29.19,SSE,157,0.0,0.0,81,0.00,,,0.00,WUHU21623XXSP,2013-02-04 11:24:00,
2013-02-04 06:29:00,22.5,17.5,29.19,SSE,157,0.0,0.0,81,0.00,,,0.00,WUHU21623XXSP,2013-02-04 11:29:00,
2013-02-04 06:34:00,22.6,17.7,29.19,ESE,112,0.0,0.0,81,0.00,,,0.00,WUHU21623XXSP,2013-02-04 11:34:00,
2013-02-04 06:39:00,22.6,17.7,29.18,South,180,1.3,1.3,81,0.00,,,0.00,WUHU21623XXSP,2013-02-04 11:39:00,
2013-02-04 06:44:00,22.6,17.7,29.19,SE,135,1.3,1.3,81,0.00,,,0.00,WUHU21623XXSP,2013-02-04 11:44:00,
2013-02-04 06:49:00,22.6,17.7,29.18,ESE,112,0.0,1.3,81,0.00,,,0.00,WUHU21623XXSP,2013-02-04 11:49:00,
2013-02-04 06:54:00,22.6,17.7,29.18,SSE,157,0.0,0.0,81,0.00,,,0.00,WUHU21623XXSP,2013-02-04 11:54:00,
2013-02-04 06:59:00,22.6,17.7,29.18,SE,135,0.0,1.3,81,0.00,,,0.00,WUHU21623XXSP,2013-02-04 11:59:00,
2013-02-04 07:04:00,22.6,17.7,29.18,SE,135,0.0,1.3,81,0.00,,,0.00,WUHU21623XXSP,2013-02-04 12:04:00,
2013-02-04 07:09:00,22.8,17.9,29.18,SW,225,0.0,0.0,81,0.00,,,0.00,WUHU21623XXSP,2013-02-04 12:09:00,
2013-02-04 07:14:00,23.0,18.0,29.18,SSE,157,0.0,0.0,81,0.00,,,0.00,WUHU21623XXSP,2013-02-04 12:14:00,
2013-02-04 07:19:00,22.8,17.9,29.18,ESE,112,0.0,0.0,81,0.00,,,0.00,WUHU21623XXSP,2013-02-04 12:19:00,
2013-02-04 07:25:00,22.8,17.9,29.18,ESE,112,0.0,0.0,81,0.00,,,0.00,WUHU21623XXSP,2013-02-04 12:25:00,
2013-02-04 07:30:00,22.8,17.9,29.18,ESE,112,0.0,0.0,81,0.00,,,0.00,WUHU21623XXSP,2013-02-04 12:30:00,
2013-02-04 07:35:00,22.8,17.9,29.18,SE,135,0.0,0.0,81,0.00,,,0.00,WUHU21623XXSP,2013-02-04 12:35:00,
2013-02-04 07:40:00,22.8,17.9,29.17,SE,135,1.1,1.1,81,0.00,,,0.00,WUHU21623XXSP,2013-02-04 12:40:00,
2013-02-04 07:45:00,22.8,17.9,29.17,SSE,157,0.0,1.1,81,0.00,,,0.00,WUHU21623XXSP,2013-02-04 12:45:00,
2013-02-04 07:50:00,22.8,17.9,29.17,ENE,67,0.0,0.0,81,0.00,,,0.00,WUHU21623XXSP,2013-02-04 12:50:00,
2013-02-04 07:55:00,22.6,17.7,29.16,ENE,67,1.3,1.3,81,0.00,,,0.00,WUHU21623XXSP,2013-02-04 12:55:00,
2013-02-04 08:00:00,22.6,17.7,29.16,ESE,112,0.0,2.5,81,0.00,,,0.00,WUHU21623XXSP,2013-02-04 13:00:00,
2013-02-04 08:05:00,22.6,17.7,29.16,SE,135,0.0,2.5,81,0.00,,,0.00,WUHU21623XXSP,2013-02-04 13:05:00,
2013-02-04 08:10:00,22.6,17.7,29.15,SSW,202,2.5,4.0,81,0.00,,,0.00,WUHU21623XXSP,2013-02-04 13:10:00,
2013-02-04 08:15:00,22.8,17.9,29.16,ENE,67,0.0,4.0,81,0.00,,,0.00,WUHU21623XXSP,2013-02-04 13:15:00,
2013-02-04 08:20:00,22.8,17.9,29.15,SSE,157,0.0,0.0,81,0.00,,,0.00,WUHU21623XXSP,2013-02-04 13:20:00,
2013-02-04 08:25:00,22.8,17.9,29.15,SE,135,2.5,2.5,81,0.00,,,0.00,WUHU21623XXSP,2013-02-04 13:25:00,
2013-02-04 08:30:00,23.2,18.2,29.14,ESE,112,0.0,2.5,81,0.00,,,0.00,WUHU21623XXSP,2013-02-04 13:30:00,
2013-02-04 08:35:00,23.2,18.2,29.14,ESE,112,2.0,3.4,81,0.00,,,0.00,WUHU21623XXSP,2013-02-04 13:35:00,
2013-02-04 08:40:00,23.5,18.6,29.14,SE,135,4.9,4.9,81,0.00,,,0.00,WUHU21623XXSP,2013-02-04 13:40:00,
2013-02-04 08:45:00,23.5,18.6,29.13,SSE,157,5.6,5.6,81,0.00,,,0.00,WUHU21623XXSP,2013-02-04 13:45:00,
2013-02-04 08:50:00,23.7,18.8,29.13,ESE,112,0.0,5.6,81,0.00,,,0.00,WUHU21623XXSP,2013-02-04 13:50:00,
2013-02-04 08:55:00,24.1,19.1,29.13,WSW,247,0.0,5.6,81,0.00,,,0.00,WUHU21623XXSP,2013-02-04 13:55:00,
2013-02-04 09:00:00,24.4,19.5,29.13,SSE,157,4.5,6.0,81,0.00,,,0.00,WUHU21623XXSP,2013-02-04 14:00:00,
2013-02-04 09:05:00,24.6,19.7,29.14,SSE,157,3.4,6.0,81,0.00,,,0.00,WUHU21623XXSP,2013-02-04 14:05:00,
2013-02-04 09:10:00,25.0,20.0,29.13,SE,135,0.0,3.4,81,0.00,,,0.00,WUHU21623XXSP,2013-02-04 14:10:00,
2013-02-04 09:15:00,25.0,20.0,29.13,ESE,112,4.5,4.5,81,0.00,,,0.00,WUHU21623XXSP,2013-02-04 14:15:00,
2013-02-04 09:20:00,25.3,20.1,29.13,South,180,4.3,4.5,80,0.00,,,0.00,WUHU21623XXSP,2013-02-04 14:20:00,
2013-02-04 09:25:00,25.5,20.2,29.12,SSE,157,4.5,6.9,80,0.00,,,0.00,WUHU21623XXSP,2013-02-04 14:25:00,
2013-02-04 09:31:00,25.5,20.2,29.12,South,180,2.9,6.9,80,0.00,,,0.00,WUHU21623XXSP,2013-02-04 14:31:00,
2013-02-04 09:36:00,25.9,20.4,29.12,East,90,0.0,2.9,79,0.00,,,0.00,WUHU21623XXSP,2013-02-04 14:36:00,
2013-02-04 09:41:00,26.1,20.4,29.11,South,180,3.4,3.4,79,0.00,,,0.00,WUHU21623XXSP,2013-02-04 14:41:00,
2013-02-04 09:46:00,26.4,20.7,29.11,SSE,157,4.5,4.5,79,0.00,,,0.00,WUHU21623XXSP,2013-02-04 14:46:00,
2013-02-04 09:51:00,26.4,20.7,29.11,SE,135,2.2,4.5,79,0.00,,,0.00,WUHU21623XXSP,2013-02-04 14:51:00,
2013-02-04 09:56:00,26.4,20.7,29.11,South,180,13.9,13.9,79,0.00,,,0.00,WUHU21623XXSP,2013-02-04 14:56:00,
2013-02-04 10:01:00,26.6,20.9,29.11,South,180,2.5,13.9,79,0.00,,,0.00,WUHU21623XXSP,2013-02-04 15:01:00,
2013-02-04 10:06:00,27.0,20.9,29.10,South,180,2.0,4.0,78,0.00,,,0.00,WUHU21623XXSP,2013-02-04 15:06:00,
2013-02-04 10:11:00,27.1,21.1,29.10,SSE,157,5.8,5.8,78,0.00,,,0.00,WUHU21623XXSP,2013-02-04 15:11:00,
2013-02-04 10:16:00,27.3,21.3,29.11,SSE,157,5.1,5.8,78,0.00,,,0.00,WUHU21623XXSP,2013-02-04 15:16:00,
2013-02-04 10:21:00,28.0,21.7,29.10,SSE,157,2.0,9.4,77,0.00,,,0.00,WUHU21623XXSP,2013-02-04 15:21:00,
2013-02-04 10:26:00,28.2,21.9,29.11,SE,135,2.0,9.4,77,0.00,,,0.00,WUHU21623XXSP,2013-02-04 15:26:00,
2013-02-04 10:31:00,28.6,21.9,29.11,South,180,4.5,4.5,76,0.00,,,0.00,WUHU21623XXSP,2013-02-04 15:31:00,
2013-02-04 10:36:00,29.1,22.5,29.11,WNW,292,0.0,4.5,76,0.00,,,0.00,WUHU21623XXSP,2013-02-04 15:36:00,
2013-02-04 10:41:00,29.8,22.5,29.10,South,180,1.3,2.0,74,0.00,,,0.00,WUHU21623XXSP,2013-02-04 15:41:00,
2013-02-04 10:46:00,30.0,22.7,29.11,ENE,67,0.0,2.9,74,0.00,,,0.00,WUHU21623XXSP,2013-02-04 15:46:00,
2013-02-04 10:51:00,30.6,22.9,29.10,SSW,202,5.6,8.9,73,0.00,,,0.00,WUHU21623XXSP,2013-02-04 15:51:00,
2013-02-04 10:56:00,30.7,22.7,29.10,SE,135,0.0,8.9,72,0.00,,,0.00,WUHU21623XXSP,2013-02-04 15:56:00,
2013-02-04 11:01:00,30.9,22.9,29.11,SSW,202,0.0,5.6,72,0.00,,,0.00,WUHU21623XXSP,2013-02-04 16:01:00,
2013-02-04 11:06:00,31.3,23.0,29.11,South,180,5.1,5.1,71,0.00,,,0.00,WUHU21623XXSP,2013-02-04 16:06:00,
2013-02-04 11:11:00,31.6,23.0,29.11,SSE,157,0.9,5.1,70,0.00,,,0.00,WUHU21623XXSP,2013-02-04 16:11:00,
2013-02-04 11:16:00,32.2,23.5,29.11,SSE,157,0.0,2.9,70,0.00,,,0.00,WUHU21623XXSP,2013-02-04 16:16:00,
2013-02-04 11:21:00,32.7,23.7,29.11,ESE,112,0.0,0.0,70,0.00,,,0.00,WUHU21623XXSP,2013-02-04 16:21:00,
2013-02-04 11:26:00,32.9,24.2,29.12,SW,225,0.0,0.0,70,0.00,,,0.00,WUHU21623XXSP,2013-02-04 16:26:00,
2013-02-04 11:31:00,33.4,24.3,29.11,SW,225,0.0,0.0,69,0.00,,,0.00,WUHU21623XXSP,2013-02-04 16:31:00,
2013-02-04 11:36:00,33.6,24.1,29.11,South,180,0.0,0.0,68,0.00,,,0.00,WUHU21623XXSP,2013-02-04 16:36:00,
2013-02-04 11:41:00,33.6,24.1,29.11,SSW,202,0.0,3.6,68,0.00,,,0.00,WUHU21623XXSP,2013-02-04 16:41:00,
2013-02-04 11:47:00,33.6,23.7,29.11,SSW,202,0.0,3.6,67,0.00,,,0.00,WUHU21623XXSP,2013-02-04 16:47:00,
2013-02-04 11:52:00,33.6,23.7,29.10,SSW,202,0.0,2.9,67,0.00,,,0.00,WUHU21623XXSP,2013-02-04 16:52:00,
2013-02-04 11:57:00,33.6,23.7,29.10,SSE,157,0.0,0.0,67,0.00,,,0.00,WUHU21623XXSP,2013-02-04 16:57:00,
2013-02-04 12:02:00,33.6,23.7,29.10,SSE,157,0.0,0.0,67,0.00,,,0.00,WUHU21623XXSP,2013-02-04 17:02:00,
2013-02-04 12:07:00,33.6,23.7,29.10,SSE,157,0.0,0.0,67,0.00,,,0.00,WUHU21623XXSP,2013-02-04 17:07:00,
2013-02-04 12:12:00,33.6,23.7,29.10,South,180,0.7,0.7,67,0.00,,,0.00,WUHU21623XXSP,2013-02-04 17:12:00,
2013-02-04 12:17:00,33.6,23.7,29.09,South,180,0.7,0.7,67,0.00,,,0.00,WUHU21623XXSP,2013-02-04 17:17:00,
2013-02-04 12:22:00,33.6,23.7,29.08,South,180,0.0,0.7,67,0.00,,,0.00,WUHU21623XXSP,2013-02-04 17:22:00,
2013-02-04 12:27:00,33.6,23.7,29.08,South,180,0.0,0.0,67,0.00,,,0.00,WUHU21623XXSP,2013-02-04 17:27:00,
2013-02-04 12:32:00,33.6,23.7,29.08,South,180,0.0,0.0,67,0.00,,,0.00,WUHU21623XXSP,2013-02-04 17:32:00,
2013-02-04 12:37:00,33.6,23.7,29.08,South,180,0.0,0.0,67,0.00,,,0.00,WUHU21623XXSP,2013-02-04 17:37:00,
2013-02-04 12:42:00,33.6,23.7,29.08,South,180,0.0,0.0,67,0.00,,,0.00,WUHU21623XXSP,2013-02-04 17:42:00,
2013-02-04 12:47:00,33.6,23.7,29.07,South,180,1.8,1.8,67,0.00,,,0.00,WUHU21623XXSP,2013-02-04 17:47:00,
2013-02-04 12:52:00,34.3,24.4,29.08,South,180,0.0,1.8,67,0.00,,,0.00,WUHU21623XXSP,2013-02-04 17:52:00,
2013-02-04 12:57:00,34.5,25.0,29.07,SSE,157,0.0,3.4,68,0.00,,,0.00,WUHU21623XXSP,2013-02-04 17:57:00,
2013-02-04 13:02:00,34.7,24.8,29.07,SE,135,0.0,3.4,67,0.00,,,0.00,WUHU21623XXSP,2013-02-04 18:02:00,
2013-02-04 13:07:00,34.9,25.0,29.06,SSW,202,2.5,2.5,67,0.00,,,0.00,WUHU21623XXSP,2013-02-04 18:07:00,
2013-02-04 13:12:00,35.2,25.3,29.06,South,180,5.1,5.1,67,0.00,,,0.00,WUHU21623XXSP,2013-02-04 18:12:00,
2013-02-04 13:17:00,35.2,25.3,29.06,SW,225,0.0,5.1,67,0.00,,,0.00,WUHU21623XXSP,2013-02-04 18:17:00,
2013-02-04 13:22:00,35.4,25.3,29.06,South,180,0.0,0.0,67,0.00,,,0.00,WUHU21623XXSP,2013-02-04 18:22:00,
2013-02-04 13:27:00,35.8,25.5,29.06,South,180,0.0,0.0,67,0.00,,,0.00,WUHU21623XXSP,2013-02-04 18:27:00,
2013-02-04 13:32:00,36.0,25.9,29.06,South,180,0.0,0.0,66,0.00,,,0.00,WUHU21623XXSP,2013-02-04 18:32:00,
2013-02-04 13:37:00,36.0,25.7,29.05,South,180,0.0,0.0,66,0.00,,,0.00,WUHU21623XXSP,2013-02-04 18:37:00,
2013-02-04 13:42:00,36.1,25.8,29.05,SSE,157,0.0,0.0,66,0.00,,,0.00,WUHU21623XXSP,2013-02-04 18:42:00,
2013-02-04 13:47:00,36.5,25.8,29.05,South,180,2.0,2.0,66,0.00,,,0.00,WUHU21623XXSP,2013-02-04 18:47:00,
2013-02-04 13:52:00,37.0,26.5,29.05,South,180,2.0,2.0,66,0.00,,,0.00,WUHU21623XXSP,2013-02-04 18:52:00,
2013-02-04 13:57:00,37.2,26.5,29.04,SSW,202,0.0,2.0,65,0.00,,,0.00,WUHU21623XXSP,2013-02-04 18:57:00,
2013-02-04 14:02:00,37.6,26.9,29.04,South,180,0.0,0.0,65,0.00,,,0.00,WUHU21623XXSP,2013-02-04 19:02:00,
2013-02-04 14:07:00,37.6,26.9,29.04,SW,225,0.0,0.0,65,0.00,,,0.00,WUHU21623XXSP,2013-02-04 19:07:00,
2013-02-04 14:12:00,37.9,27.2,29.05,SW,225,0.0,0.0,65,0.00,,,0.00,WUHU21623XXSP,2013-02-04 19:12:00,
2013-02-04 14:17:00,38.1,27.4,29.04,East,90,0.0,0.0,65,0.00,,,0.00,WUHU21623XXSP,2013-02-04 19:17:00,
2013-02-04 14:23:00,38.1,27.4,29.04,East,90,0.0,0.0,65,0.00,,,0.00,WUHU21623XXSP,2013-02-04 19:23:00,
2013-02-04 14:28:00,38.1,27.4,29.05,East,90,0.0,0.0,65,0.00,,,0.00,WUHU21623XXSP,2013-02-04 19:28:00,
2013-02-04 14:33:00,38.1,27.4,29.04,East,90,0.0,0.0,65,0.00,,,0.00,WUHU21623XXSP,2013-02-04 19:33:00,
2013-02-04 14:38:00,38.1,27.1,29.04,East,90,0.0,0.0,64,0.00,,,0.00,WUHU21623XXSP,2013-02-04 19:38:00,
2013-02-04 14:43:00,38.1,27.1,29.04,East,90,0.0,0.0,64,0.00,,,0.00,WUHU21623XXSP,2013-02-04 19:43:00,
2013-02-04 14:48:00,37.9,26.9,29.03,East,90,0.0,0.0,64,0.00,,,0.00,WUHU21623XXSP,2013-02-04 19:48:00,
2013-02-04 14:53:00,38.5,26.9,29.03,SW,225,0.0,2.0,63,0.00,,,0.00,WUHU21623XXSP,2013-02-04 19:53:00,
2013-02-04 14:58:00,38.3,27.1,29.03,South,180,0.0,2.0,64,0.00,,,0.00,WUHU21623XXSP,2013-02-04 19:58:00,
2013-02-04 15:03:00,38.5,27.3,29.03,SW,225,0.0,0.0,64,0.00,,,0.00,WUHU21623XXSP,2013-02-04 20:03:00,
2013-02-04 15:08:00,38.5,27.3,29.03,SW,225,0.0,0.0,64,0.00,,,0.00,WUHU21623XXSP,2013-02-04 20:08:00,
2013-02-04 15:13:00,38.5,27.3,29.04,SW,225,0.0,0.0,64,0.00,,,0.00,WUHU21623XXSP,2013-02-04 20:13:00,
2013-02-04 15:18:00,38.5,27.3,29.04,SW,225,0.0,0.0,64,0.00,,,0.00,WUHU21623XXSP,2013-02-04 20:18:00,
2013-02-04 15:23:00,38.5,27.3,29.04,SW,225,0.0,0.0,64,0.00,,,0.00,WUHU21623XXSP,2013-02-04 20:23:00,
2013-02-04 15:28:00,38.5,27.3,29.04,SW,225,0.0,0.0,64,0.00,,,0.00,WUHU21623XXSP,2013-02-04 20:28:00,
2013-02-04 22:33:00,27.7,22.9,29.13,NE,45,0.0,0.0,82,0.00,,,0.00,WUHU21623XXSP,2013-02-05 03:33:00,
2013-02-04 22:38:00,27.7,22.6,29.14,NE,45,0.0,0.0,81,0.00,,,0.00,WUHU21623XXSP,2013-02-05 03:38:00,
2013-02-04 22:43:00,27.7,22.6,29.14,NE,45,0.0,0.0,81,0.00,,,0.00,WUHU21623XXSP,2013-02-05 03:43:00,
2013-02-04 22:48:00,27.7,22.6,29.13,NE,45,0.0,0.0,81,0.00,,,0.00,WUHU21623XXSP,2013-02-05 03:48:00,
2013-02-04 22:53:00,27.1,22.0,29.14,North,0,0.0,3.6,81,0.00,,,0.00,WUHU21623XXSP,2013-02-05 03:53:00,
2013-02-04 22:58:00,27.1,22.0,29.14,North,0,0.0,3.6,81,0.00,,,0.00,WUHU21623XXSP,2013-02-05 03:58:00,
2013-02-04 23:03:00,27.1,22.0,29.14,North,0,0.0,0.0,81,0.00,,,0.00,WUHU21623XXSP,2013-02-05 04:03:00,
2013-02-04 23:08:00,27.1,22.0,29.15,North,0,0.0,0.0,81,0.00,,,0.00,WUHU21623XXSP,2013-02-05 04:08:00,
2013-02-04 23:13:00,27.0,21.8,29.15,North,0,0.0,0.0,81,0.00,,,0.00,WUHU21623XXSP,2013-02-05 04:13:00,
2013-02-04 23:18:00,27.0,22.1,29.16,North,0,3.6,3.6,82,0.00,,,0.00,WUHU21623XXSP,2013-02-05 04:18:00,
2013-02-04 23:23:00,26.4,22.1,29.15,North,0,3.6,3.6,82,0.00,,,0.00,WUHU21623XXSP,2013-02-05 04:23:00,
2013-02-04 23:28:00,26.4,21.3,29.16,NNW,337,0.0,3.6,81,0.00,,,0.00,WUHU21623XXSP,2013-02-05 04:28:00,
2013-02-04 23:33:00,26.2,21.3,29.15,NNW,337,0.0,3.6,81,0.00,,,0.00,WUHU21623XXSP,2013-02-05 04:33:00,
2013-02-04 23:38:00,26.2,21.1,29.16,NNW,337,0.0,0.0,81,0.00,,,0.00,WUHU21623XXSP,2013-02-05 04:38:00,
2013-02-04 23:43:00,26.2,21.1,29.15,NNW,337,0.0,0.0,81,0.00,,,0.00,WUHU21623XXSP,2013-02-05 04:43:00,
2013-02-04 23:48:00,25.9,20.8,29.15,NNW,337,0.0,0.0,81,0.00,,,0.00,WUHU21623XXSP,2013-02-05 04:48:00,
2013-02-04 23:53:00,25.9,20.8,29.14,NNW,337,0.0,0.0,81,0.00,,,0.00,WUHU21623XXSP,2013-02-05 04:53:00,
2013-02-04 23:58:00,25.9,20.8,29.13,NNW,337,0.0,0.0,81,0.00,,,0.00,WUHU21623XXSP,2013-02-05 04:58:00,